Time,TemperatureF,DewpointF,PressureIn,WindDirection,WindDirectionDegrees,WindSpeedMPH,WindSpeedGustMPH,Humidity,HourlyPrecipIn,Conditions,Clouds,dailyrainin,SolarRadiationWatts/m^2,SoftwareType,DateUTC
2013-09-04 00:03:00,67.0,62.0,-100.00,WSW,249,4.0,6.0,85,0.00,,,0.00,0.000000,,2013-09-04 05:03:00,
2013-09-04 00:43:00,66.0,61.0,-100.00,West,273,3.0,5.0,84,0.00,,,0.00,0.000000,,2013-09-04 05:43:00,
2013-09-04 00:53:00,66.0,61.0,-100.00,West,273,3.0,5.0,84,0.00,,,0.00,0.000000,,2013-09-04 05:53:00,
2013-09-04 01:02:00,66.0,61.0,-100.00,West,273,3.0,5.0,84,0.00,,,0.00,0.000000,,2013-09-04 06:02:00,
2013-09-04 01:42:00,66.0,60.0,-100.00,NW,314,5.0,7.0,82,0.00,,,0.00,0.000000,,2013-09-04 06:42:00,
2013-09-04 01:52:00,66.0,60.0,-100.00,NW,314,5.0,7.0,82,0.00,,,0.00,0.000000,,2013-09-04 06:52:00,
2013-09-04 02:02:00,66.0,60.0,-100.00,NW,314,5.0,7.0,82,0.00,,,0.00,0.000000,,2013-09-04 07:02:00,
2013-09-04 02:42:00,65.0,60.0,-100.00,NNW,329,7.0,10.0,83,0.00,,,0.00,0.000000,,2013-09-04 07:42:00,
2013-09-04 02:52:00,65.0,60.0,-100.00,NNW,329,7.0,10.0,83,0.00,,,0.00,0.000000,,2013-09-04 07:52:00,
2013-09-04 03:02:00,65.0,60.0,-100.00,NNW,329,7.0,10.0,83,0.00,,,0.00,0.000000,,2013-09-04 08:02:00,
2013-09-04 03:43:00,63.0,59.0,-100.00,North,360,6.0,11.0,86,0.00,,,0.00,0.000000,,2013-09-04 08:43:00,
2013-09-04 03:52:00,63.0,59.0,-100.00,North,360,6.0,11.0,86,0.00,,,0.00,0.000000,,2013-09-04 08:52:00,
2013-09-04 04:01:00,63.0,59.0,-100.00,North,360,6.0,11.0,86,0.00,,,0.00,0.000000,,2013-09-04 09:01:00,
2013-09-04 04:43:00,61.0,57.0,-100.00,NNE,17,6.0,14.0,86,0.00,,,0.00,0.000000,,2013-09-04 09:43:00,
2013-09-04 04:53:00,61.0,57.0,-100.00,NNE,17,6.0,14.0,86,0.00,,,0.00,0.000000,,2013-09-04 09:53:00,
2013-09-04 05:03:00,61.0,57.0,-100.00,NNE,17,6.0,14.0,86,0.00,,,0.00,0.000000,,2013-09-04 10:03:00,
2013-09-04 05:42:00,59.0,55.0,-100.00,North,6,7.0,10.0,88,0.00,,,0.00,0.000000,,2013-09-04 10:42:00,
2013-09-04 05:52:00,59.0,55.0,-100.00,North,6,7.0,10.0,88,0.00,,,0.00,0.000000,,2013-09-04 10:52:00,
2013-09-04 06:02:00,59.0,55.0,-100.00,North,6,7.0,10.0,88,0.00,,,0.00,0.000000,,2013-09-04 11:02:00,
2013-09-04 06:42:00,55.0,52.0,-100.00,North,8,4.0,10.0,91,0.00,,,0.00,0.000000,,2013-09-04 11:42:00,
2013-09-04 06:52:00,55.0,52.0,-100.00,North,8,4.0,10.0,91,0.00,,,0.00,0.000000,,2013-09-04 11:52:00,
2013-09-04 07:02:00,55.0,52.0,-100.00,North,8,4.0,10.0,91,0.00,,,0.00,0.000000,,2013-09-04 12:02:00,
2013-09-04 07:42:00,54.0,51.0,-100.00,North,354,3.0,5.0,90,0.00,,,0.00,10.000000,,2013-09-04 12:42:00,
2013-09-04 07:52:00,54.0,51.0,-100.00,North,354,3.0,5.0,90,0.00,,,0.00,10.000000,,2013-09-04 12:52:00,
2013-09-04 08:01:00,54.0,51.0,-100.00,North,354,3.0,5.0,90,0.00,,,0.00,10.000000,,2013-09-04 13:01:00,
2013-09-04 08:42:00,57.0,51.0,-100.00,NNE,25,6.0,8.0,80,0.00,,,0.00,158.000000,,2013-09-04 13:42:00,
2013-09-04 08:52:00,57.0,51.0,-100.00,NNE,25,6.0,8.0,80,0.00,,,0.00,158.000000,,2013-09-04 13:52:00,
2013-09-04 09:02:00,57.0,51.0,-100.00,NNE,25,6.0,8.0,80,0.00,,,0.00,158.000000,,2013-09-04 14:02:00,
2013-09-04 09:42:00,60.0,51.0,-100.00,ENE,58,7.0,11.0,73,0.00,,,0.00,383.000000,,2013-09-04 14:42:00,
2013-09-04 09:52:00,60.0,51.0,-100.00,ENE,58,7.0,11.0,73,0.00,,,0.00,383.000000,,2013-09-04 14:52:00,
2013-09-04 10:02:00,60.0,51.0,-100.00,ENE,58,7.0,11.0,73,0.00,,,0.00,383.000000,,2013-09-04 15:02:00,
2013-09-04 10:43:00,63.0,53.0,-100.00,East,81,6.0,10.0,71,0.00,,,0.00,505.000000,,2013-09-04 15:43:00,
2013-09-04 10:53:00,63.0,53.0,-100.00,East,81,6.0,10.0,71,0.00,,,0.00,505.000000,,2013-09-04 15:53:00,
2013-09-04 11:04:00,63.0,53.0,-100.00,East,81,6.0,10.0,71,0.00,,,0.00,505.000000,,2013-09-04 16:04:00,
2013-09-04 11:43:00,66.0,54.0,-100.00,NE,43,4.0,8.0,65,0.00,,,0.00,793.000000,,2013-09-04 16:43:00,
2013-09-04 11:53:00,66.0,54.0,-100.00,NE,43,4.0,8.0,65,0.00,,,0.00,793.000000,,2013-09-04 16:53:00,
2013-09-04 12:03:00,66.0,54.0,-100.00,NE,43,4.0,8.0,65,0.00,,,0.00,793.000000,,2013-09-04 17:03:00,
2013-09-04 12:42:00,67.0,50.0,-100.00,ENE,68,4.0,10.0,54,0.00,,,0.00,820.000000,,2013-09-04 17:42:00,
2013-09-04 12:53:00,67.0,50.0,-100.00,ENE,68,4.0,10.0,54,0.00,,,0.00,820.000000,,2013-09-04 17:53:00,
2013-09-04 13:02:00,67.0,50.0,-100.00,ENE,68,4.0,10.0,54,0.00,,,0.00,820.000000,,2013-09-04 18:02:00,
2013-09-04 13:42:00,69.0,50.0,-100.00,NNE,33,4.0,9.0,50,0.00,,,0.00,918.000000,,2013-09-04 18:42:00,
2013-09-04 13:52:00,69.0,50.0,-100.00,NNE,33,4.0,9.0,50,0.00,,,0.00,918.000000,,2013-09-04 18:52:00,
2013-09-04 14:02:00,69.0,50.0,-100.00,NNE,33,4.0,9.0,50,0.00,,,0.00,918.000000,,2013-09-04 19:02:00,
2013-09-04 14:42:00,72.0,48.0,-100.00,ESE,113,3.0,8.0,42,0.00,,,0.00,979.000000,,2013-09-04 19:42:00,
2013-09-04 14:52:00,72.0,48.0,-100.00,ESE,113,3.0,8.0,42,0.00,,,0.00,979.000000,,2013-09-04 19:52:00,
2013-09-04 15:02:00,72.0,48.0,-100.00,ESE,113,3.0,8.0,42,0.00,,,0.00,979.000000,,2013-09-04 20:02:00,
2013-09-04 15:43:00,71.0,43.0,-100.00,NNW,343,6.0,12.0,37,0.00,,,0.00,919.000000,,2013-09-04 20:43:00,
2013-09-04 15:53:00,71.0,43.0,-100.00,NNW,343,6.0,12.0,37,0.00,,,0.00,919.000000,,2013-09-04 20:53:00,
2013-09-04 16:02:00,71.0,43.0,-100.00,NNW,343,6.0,12.0,37,0.00,,,0.00,919.000000,,2013-09-04 21:02:00,
2013-09-04 16:44:00,72.0,41.0,-100.00,NW,325,4.0,12.0,32,0.00,,,0.00,811.000000,,2013-09-04 21:44:00,
2013-09-04 16:54:00,72.0,41.0,-100.00,NW,325,4.0,12.0,32,0.00,,,0.00,811.000000,,2013-09-04 21:54:00,
2013-09-04 17:04:00,72.0,41.0,-100.00,NW,325,4.0,12.0,32,0.00,,,0.00,811.000000,,2013-09-04 22:04:00,
2013-09-04 17:43:00,71.0,44.0,-100.00,North,355,6.0,12.0,38,0.00,,,0.00,639.000000,,2013-09-04 22:43:00,
2013-09-04 17:55:00,71.0,44.0,-100.00,North,355,6.0,12.0,38,0.00,,,0.00,639.000000,,2013-09-04 22:55:00,
2013-09-04 18:03:00,71.0,44.0,-100.00,North,355,6.0,12.0,38,0.00,,,0.00,639.000000,,2013-09-04 23:03:00,
2013-09-04 18:42:00,70.0,47.0,-100.00,NNW,347,6.0,11.0,44,0.00,,,0.00,368.000000,,2013-09-04 23:42:00,
2013-09-04 18:52:00,70.0,47.0,-100.00,NNW,347,6.0,11.0,44,0.00,,,0.00,368.000000,,2013-09-04 23:52:00,
2013-09-04 19:01:00,70.0,47.0,-100.00,NNW,347,6.0,11.0,44,0.00,,,0.00,368.000000,,2013-09-05 00:01:00,
2013-09-04 19:43:00,67.0,48.0,-100.00,North,355,4.0,8.0,50,0.00,,,0.00,204.000000,,2013-09-05 00:43:00,
2013-09-04 19:52:00,67.0,48.0,-100.00,North,355,4.0,8.0,50,0.00,,,0.00,204.000000,,2013-09-05 00:52:00,
2013-09-04 20:01:00,67.0,48.0,-100.00,North,355,4.0,8.0,50,0.00,,,0.00,204.000000,,2013-09-05 01:01:00,
2013-09-04 20:42:00,58.0,49.0,-100.00,NNE,31,4.0,5.0,73,0.00,,,0.00,28.000000,,2013-09-05 01:42:00,
2013-09-04 20:52:00,58.0,49.0,-100.00,NNE,31,4.0,5.0,73,0.00,,,0.00,28.000000,,2013-09-05 01:52:00,
2013-09-04 21:02:00,58.0,49.0,-100.00,NNE,31,4.0,5.0,73,0.00,,,0.00,28.000000,,2013-09-05 02:02:00,
2013-09-04 21:52:00,53.0,49.0,-100.00,North,5,0.0,5.0,85,0.00,,,0.00,0.000000,,2013-09-05 02:52:00,
2013-09-04 22:02:00,53.0,49.0,-100.00,North,5,0.0,5.0,85,0.00,,,0.00,0.000000,,2013-09-05 03:02:00,
2013-09-04 22:45:00,51.0,47.0,-100.00,SE,139,0.0,3.0,86,0.00,,,0.00,0.000000,,2013-09-05 03:45:00,
2013-09-04 22:54:00,51.0,47.0,-100.00,SE,139,0.0,3.0,86,0.00,,,0.00,0.000000,,2013-09-05 03:54:00,
2013-09-04 23:04:00,51.0,47.0,-100.00,SE,139,0.0,3.0,86,0.00,,,0.00,0.000000,,2013-09-05 04:04:00,
2013-09-04 23:44:00,47.0,44.0,-100.00,NW,313,1.0,3.0,88,0.00,,,0.00,0.000000,,2013-09-05 04:44:00,
2013-09-04 23:53:00,47.0,44.0,-100.00,NW,313,1.0,3.0,88,0.00,,,0.00,0.000000,,2013-09-05 04:53:00,